Terminal Aerodrome Forecast
Issued by NWS

Home | Current Version | Previous Version | Text Only | Print | Product List | Glossary On
Versions: 1 2 3 4 5 6 7 8 9 10 11 12 13 14 15 16 17
000
FTUS46 KMTR 010500
TAFSJC
TAF
KSJC 010538Z 0106/0206 15003KT P6SM SCT025 BKN050
     FM011300 16003KT P6SM FEW025 SCT150
     FM012100 31006KT P6SM FEW035 SCT120
     FM020300 VRB03KT P6SM FEW030 SCT120=

USA.gov is the U.S. government's official web portal to all federal, state and local government web resources and services.